Portada
METAR-TAF:

METAR-TAF

Aeroports :

Aeroport Internacional de Guangzhou-Baiyun

Canton, Xina

latitud: 23-10N, longitud: 113-20E, altitud: 8 m

Observació

L'informe es va fer fa 36 minuts, a les 10:30 UTC
Vent 4 kt del Sud, variant entre Sud-Est i Sud/Sud-Oest
Temperatura 25°C
Humitat 61%
Pressió 1017 hPa
Visibilitat: 8000 m
Cel ennuvolat a una alçada de 3300 ft

METAR: ZGGG 271030Z 18002MPS 140V200 8000 BKN033 25/17 Q1017 NOSIG

Hora: 19:06 (11:06 UTC)

Pronòstic

L'informe es va fer fa 7 hores i 48 minuts, a les 03:18 UTC
Pronòstic vàlid del 27 a les 06 UTC al 28 a les 06 UTC
Vent 6 kt del Est/Sud-Est
Visibilitat: 8000 m
Núvols disperses a una alçada de 3300 ft

TAF: ZGGG 270318Z 2706/2806 12003MPS 8000 SCT033 TX28/2707Z TN20/2722Z

Observacions i pronòstics meteorològics de més de 4000 aeroports (METAR i TAF).

Les estacions disponibles són els punts grocs i vermells al mapa.

Posi el ratolí al punt desitjat per veure el nom de l'estació.

Feu clic per veure les observacions i els pronòstics meteorològics.

Per canviar el mapa: feu clic els botons verds amb una creu de color negre per apropar; al botó verd amb un guió per allunyar la imatge; o en les fletxes verdes per a mapes adjacents.


METAR-TAF: